SBI5115 UNNT-URKK
Flight info
| Callsign | SBI5115 |
|---|---|
| Flight time | N/A |
| Altitude | 36000 |
| Route | LUNIM B808 DAKIN N55 OGANU DCT IPLED DCT GOTIK DCT MEMZA DCT VENFO DCT PROZR DCT MOBIT B949 SM |
| Aircraft | A320/M-SDE2E3FGHIRWXY/LB1 |
Departure
| Time | N/A |
|---|---|
| Airport | Novosibirsk Tolmachevo Airport (UNNT) |
Arrival
| Time | 2026-05-09 11:32 |
|---|---|
| Airport | Krasnodar Pashkovsky International Airport (URKK) |
| Time | Latitude | Longitude | Altitude | Speed | Heading |
|---|---|---|---|---|---|
| 2026-05-09 10:55 | 43.67640 | 42.20237 | 36170 ft | 453 kts | 272° |
| 2026-05-09 10:56 | 43.67699 | 42.15882 | 36167 ft | 453 kts | 272° |
| 2026-05-09 10:56 | 43.67815 | 42.07179 | 36162 ft | 453 kts | 272° |
| 2026-05-09 10:57 | 43.67923 | 41.98482 | 36164 ft | 453 kts | 272° |
| 2026-05-09 10:57 | 43.68019 | 41.89780 | 36158 ft | 453 kts | 272° |
| 2026-05-09 10:58 | 43.68104 | 41.81085 | 36158 ft | 453 kts | 272° |
| 2026-05-09 10:58 | 43.68189 | 41.72389 | 36160 ft | 453 kts | 272° |
| 2026-05-09 10:59 | 43.68270 | 41.63740 | 36160 ft | 453 kts | 272° |
| 2026-05-09 10:59 | 43.68343 | 41.55040 | 36161 ft | 453 kts | 272° |
| 2026-05-09 11:00 | 43.68410 | 41.46344 | 36160 ft | 453 kts | 272° |
| 2026-05-09 11:00 | 43.68465 | 41.37653 | 36162 ft | 453 kts | 272° |
| 2026-05-09 11:01 | 43.68502 | 41.30367 | 36162 ft | 453 kts | 272° |
| 2026-05-09 11:01 | 43.68552 | 41.21671 | 36160 ft | 453 kts | 272° |
| 2026-05-09 11:02 | 43.68598 | 41.13040 | 36164 ft | 452 kts | 272° |
| 2026-05-09 11:02 | 43.68627 | 41.04350 | 36161 ft | 452 kts | 271° |
| 2026-05-09 11:03 | 43.68649 | 40.95660 | 36157 ft | 452 kts | 271° |
| 2026-05-09 11:03 | 43.68460 | 40.86981 | 36153 ft | 453 kts | 263° |
| 2026-05-09 11:04 | 43.67554 | 40.78361 | 36157 ft | 453 kts | 263° |
| 2026-05-09 11:04 | 43.66652 | 40.69749 | 36155 ft | 453 kts | 263° |
| 2026-05-09 11:05 | 43.65750 | 40.61146 | 36157 ft | 452 kts | 263° |
| 2026-05-09 11:05 | 43.64836 | 40.52558 | 36155 ft | 452 kts | 263° |
| 2026-05-09 11:06 | 43.63910 | 40.43969 | 36151 ft | 452 kts | 263° |
| 2026-05-09 11:06 | 43.62981 | 40.35396 | 36148 ft | 452 kts | 263° |
| 2026-05-09 11:07 | 43.62056 | 40.26880 | 36144 ft | 451 kts | 263° |
| 2026-05-09 11:07 | 43.61118 | 40.18330 | 36144 ft | 451 kts | 263° |
| 2026-05-09 11:08 | 43.60168 | 40.09779 | 36146 ft | 451 kts | 263° |
| 2026-05-09 11:08 | 43.59211 | 40.01251 | 36146 ft | 450 kts | 263° |
| 2026-05-09 11:09 | 43.58254 | 39.92702 | 36144 ft | 450 kts | 263° |
| 2026-05-09 11:09 | 43.57295 | 39.84168 | 36144 ft | 450 kts | 263° |
| 2026-05-09 11:10 | 43.56570 | 39.75619 | 36140 ft | 448 kts | 272° |
| 2026-05-09 11:10 | 43.57614 | 39.67246 | 36134 ft | 442 kts | 291° |
| 2026-05-09 11:11 | 43.60337 | 39.59672 | 35989 ft | 442 kts | 300° |
| 2026-05-09 11:11 | 43.61814 | 39.55959 | 35737 ft | 441 kts | 300° |
| 2026-05-09 11:11 | 43.63284 | 39.52238 | 35493 ft | 441 kts | 300° |
| 2026-05-09 11:11 | 43.64746 | 39.48523 | 35247 ft | 441 kts | 300° |
| 2026-05-09 11:12 | 43.66209 | 39.44803 | 35006 ft | 441 kts | 300° |
| 2026-05-09 11:12 | 43.67673 | 39.41087 | 34762 ft | 440 kts | 300° |
| 2026-05-09 11:12 | 43.69137 | 39.37365 | 34529 ft | 440 kts | 300° |
| 2026-05-09 11:12 | 43.70596 | 39.33652 | 34293 ft | 440 kts | 300° |
| 2026-05-09 11:13 | 43.72058 | 39.29935 | 33494 ft | 442 kts | 301° |
| 2026-05-09 11:13 | 43.73529 | 39.26181 | 32473 ft | 445 kts | 301° |
| 2026-05-09 11:13 | 43.75001 | 39.22411 | 31472 ft | 447 kts | 301° |
| 2026-05-09 11:13 | 43.76482 | 39.18615 | 30493 ft | 448 kts | 301° |
| 2026-05-09 11:14 | 43.77950 | 39.14850 | 29331 ft | 452 kts | 301° |
| 2026-05-09 11:14 | 43.79426 | 39.11067 | 28861 ft | 440 kts | 301° |
| 2026-05-09 11:14 | 43.80871 | 39.07356 | 28152 ft | 435 kts | 301° |
| 2026-05-09 11:14 | 43.82299 | 39.03689 | 27483 ft | 430 kts | 301° |
| 2026-05-09 11:15 | 43.82779 | 39.02456 | 27272 ft | 429 kts | 301° |
| 2026-05-09 11:15 | 43.85114 | 38.96456 | 26186 ft | 422 kts | 300° |
| 2026-05-09 11:15 | 43.86492 | 38.92898 | 25547 ft | 419 kts | 300° |
| 2026-05-09 11:15 | 43.87867 | 38.89338 | 24910 ft | 416 kts | 300° |
| 2026-05-09 11:16 | 43.89225 | 38.85821 | 24285 ft | 413 kts | 300° |
| 2026-05-09 11:16 | 43.90584 | 38.82305 | 23652 ft | 411 kts | 300° |
| 2026-05-09 11:16 | 43.92170 | 38.79038 | 22998 ft | 406 kts | 312° |
| 2026-05-09 11:16 | 43.94218 | 38.76388 | 22435 ft | 399 kts | 325° |
| 2026-05-09 11:17 | 43.96589 | 38.74454 | 21875 ft | 394 kts | 337° |
| 2026-05-09 11:17 | 43.99143 | 38.73294 | 21363 ft | 389 kts | 349° |
| 2026-05-09 11:17 | 44.01819 | 38.72861 | 20848 ft | 385 kts | 357° |
| 2026-05-09 11:17 | 44.04483 | 38.72638 | 20351 ft | 382 kts | 357° |
| 2026-05-09 11:18 | 44.07129 | 38.72418 | 19865 ft | 379 kts | 357° |
| 2026-05-09 11:18 | 44.09751 | 38.72200 | 19379 ft | 376 kts | 357° |
| 2026-05-09 11:18 | 44.12353 | 38.71981 | 18892 ft | 374 kts | 357° |
| 2026-05-09 11:18 | 44.14948 | 38.71762 | 18381 ft | 372 kts | 357° |
| 2026-05-09 11:19 | 44.17527 | 38.71544 | 17849 ft | 369 kts | 357° |
| 2026-05-09 11:19 | 44.20085 | 38.71324 | 17334 ft | 367 kts | 357° |
| 2026-05-09 11:19 | 44.22622 | 38.71107 | 16829 ft | 364 kts | 357° |
| 2026-05-09 11:19 | 44.25141 | 38.70893 | 16310 ft | 362 kts | 357° |
| 2026-05-09 11:20 | 44.27655 | 38.70684 | 15797 ft | 361 kts | 357° |
| 2026-05-09 11:20 | 44.30158 | 38.70490 | 15289 ft | 359 kts | 360° |
| 2026-05-09 11:20 | 44.32642 | 38.70725 | 14773 ft | 358 kts | 9° |
| 2026-05-09 11:20 | 44.35100 | 38.71246 | 14254 ft | 357 kts | 9° |
| 2026-05-09 11:21 | 44.37564 | 38.71763 | 13713 ft | 358 kts | 9° |
| 2026-05-09 11:21 | 44.40017 | 38.72282 | 13177 ft | 355 kts | 9° |
| 2026-05-09 11:21 | 44.42456 | 38.72803 | 12654 ft | 353 kts | 10° |
| 2026-05-09 11:21 | 44.44874 | 38.73322 | 12134 ft | 350 kts | 10° |
| 2026-05-09 11:22 | 44.47273 | 38.73844 | 11623 ft | 347 kts | 10° |
| 2026-05-09 11:22 | 44.49649 | 38.74370 | 11102 ft | 345 kts | 11° |
| 2026-05-09 11:22 | 44.51975 | 38.74886 | 10753 ft | 338 kts | 11° |
| 2026-05-09 11:22 | 44.54248 | 38.75384 | 10613 ft | 324 kts | 10° |
| 2026-05-09 11:23 | 44.56434 | 38.75860 | 10500 ft | 311 kts | 11° |
| 2026-05-09 11:23 | 44.58537 | 38.76316 | 10379 ft | 300 kts | 10° |
| 2026-05-09 11:23 | 44.60570 | 38.76741 | 10175 ft | 292 kts | 10° |
| 2026-05-09 11:23 | 44.62562 | 38.77154 | 10109 ft | 289 kts | 10° |
| 2026-05-09 11:24 | 44.64562 | 38.77574 | 9841 ft | 291 kts | 10° |
| 2026-05-09 11:24 | 44.66561 | 38.78001 | 9423 ft | 290 kts | 10° |
| 2026-05-09 11:24 | 44.68542 | 38.78430 | 9030 ft | 288 kts | 10° |
| 2026-05-09 11:24 | 44.70529 | 38.78865 | 8639 ft | 288 kts | 10° |
| 2026-05-09 11:25 | 44.72499 | 38.79299 | 8246 ft | 286 kts | 10° |
| 2026-05-09 11:25 | 44.74459 | 38.79729 | 7861 ft | 284 kts | 10° |
| 2026-05-09 11:25 | 44.76370 | 38.80174 | 7449 ft | 272 kts | 15° |
| 2026-05-09 11:25 | 44.78084 | 38.81161 | 7112 ft | 264 kts | 34° |
| 2026-05-09 11:26 | 44.79525 | 38.82736 | 6760 ft | 262 kts | 41° |
| 2026-05-09 11:26 | 44.80912 | 38.84342 | 6398 ft | 252 kts | 40° |
| 2026-05-09 11:26 | 44.82264 | 38.85876 | 6051 ft | 249 kts | 40° |
| 2026-05-09 11:26 | 44.83629 | 38.87408 | 5606 ft | 249 kts | 39° |
| 2026-05-09 11:27 | 44.84981 | 38.88868 | 5236 ft | 240 kts | 38° |
| 2026-05-09 11:27 | 44.86299 | 38.90295 | 4903 ft | 238 kts | 39° |
| 2026-05-09 11:27 | 44.87598 | 38.91726 | 4570 ft | 233 kts | 39° |
| 2026-05-09 11:27 | 44.88837 | 38.93121 | 4241 ft | 224 kts | 39° |
| 2026-05-09 11:28 | 44.90021 | 38.94502 | 3941 ft | 219 kts | 40° |
| 2026-05-09 11:28 | 44.91118 | 38.95912 | 3639 ft | 208 kts | 53° |
| 2026-05-09 11:28 | 44.91828 | 38.97646 | 3586 ft | 202 kts | 62° |
| 2026-05-09 11:28 | 44.92640 | 38.99370 | 3152 ft | 218 kts | 48° |
| 2026-05-09 11:29 | 44.93670 | 39.01000 | 2716 ft | 225 kts | 49° |
| 2026-05-09 11:29 | 44.94666 | 39.02718 | 2442 ft | 226 kts | 51° |
| 2026-05-09 11:29 | 44.95590 | 39.04402 | 2138 ft | 208 kts | 51° |
| 2026-05-09 11:29 | 44.96437 | 39.05957 | 1887 ft | 190 kts | 51° |
| 2026-05-09 11:30 | 44.97214 | 39.07386 | 1684 ft | 178 kts | 51° |
| 2026-05-09 11:30 | 44.97967 | 39.08767 | 1459 ft | 176 kts | 51° |
| 2026-05-09 11:30 | 44.98696 | 39.10107 | 1269 ft | 165 kts | 51° |
| 2026-05-09 11:30 | 44.99368 | 39.11342 | 1076 ft | 153 kts | 51° |
| 2026-05-09 11:31 | 44.99998 | 39.12496 | 877 ft | 146 kts | 52° |
| 2026-05-09 11:31 | 45.00611 | 39.13623 | 684 ft | 144 kts | 53° |
| 2026-05-09 11:31 | 45.01210 | 39.14721 | 504 ft | 142 kts | 54° |
| 2026-05-09 11:31 | 45.01809 | 39.15827 | 339 ft | 141 kts | 54° |
| 2026-05-09 11:32 | 45.02401 | 39.16928 | 197 ft | 141 kts | 53° |
| 2026-05-09 11:32 | 45.02973 | 39.17994 | 118 ft | 127 kts | 53° |
| 2026-05-09 11:32 | 45.03419 | 39.18812 | 117 ft | 80 kts | 52° |
| 2026-05-09 11:32 | 45.03655 | 39.19242 | 115 ft | 31 kts | 53° |
| 2026-05-09 11:33 | 45.03779 | 39.19470 | 115 ft | 29 kts | 53° |
| 2026-05-09 11:33 | 45.03898 | 39.19692 | 116 ft | 28 kts | 52° |
| 2026-05-09 11:33 | 45.04062 | 39.20017 | 120 ft | 16 kts | 66° |
| 2026-05-09 11:34 | 45.04112 | 39.20066 | 118 ft | 1 kts | 293° |
| 2026-05-09 11:34 | 45.04100 | 39.20045 | 120 ft | 6 kts | 229° |
| 2026-05-09 11:34 | 45.04044 | 39.19957 | 119 ft | 18 kts | 228° |
| 2026-05-09 11:34 | 45.03946 | 39.19779 | 116 ft | 28 kts | 232° |
| 2026-05-09 11:35 | 45.03820 | 39.19546 | 116 ft | 32 kts | 233° |
| 2026-05-09 11:35 | 45.03683 | 39.19294 | 116 ft | 32 kts | 232° |
| 2026-05-09 11:35 | 45.03564 | 39.19079 | 114 ft | 27 kts | 233° |
| 2026-05-09 11:35 | 45.03461 | 39.18882 | 117 ft | 15 kts | 234° |
| 2026-05-09 11:36 | 45.03489 | 39.18754 | 112 ft | 17 kts | 324° |
| 2026-05-09 11:36 | 45.03542 | 39.18676 | 108 ft | 11 kts | 278° |
| 2026-05-09 11:36 | 45.03496 | 39.18565 | 106 ft | 16 kts | 228° |
| 2026-05-09 11:36 | 45.03426 | 39.18434 | 107 ft | 18 kts | 232° |
| 2026-05-09 11:37 | 45.03344 | 39.18291 | 107 ft | 20 kts | 235° |
| 2026-05-09 11:37 | 45.03258 | 39.18127 | 107 ft | 19 kts | 234° |
| 2026-05-09 11:37 | 45.03172 | 39.17968 | 107 ft | 21 kts | 232° |
| 2026-05-09 11:37 | 45.03077 | 39.17795 | 107 ft | 23 kts | 231° |
| 2026-05-09 11:38 | 45.02989 | 39.17634 | 107 ft | 20 kts | 231° |
| 2026-05-09 11:38 | 45.02899 | 39.17466 | 107 ft | 22 kts | 234° |
| 2026-05-09 11:38 | 45.02821 | 39.17321 | 107 ft | 14 kts | 232° |
| 2026-05-09 11:38 | 45.02818 | 39.17228 | 107 ft | 10 kts | 314° |
| 2026-05-09 11:39 | 45.02873 | 39.17167 | 106 ft | 13 kts | 321° |
| 2026-05-09 11:39 | 45.02958 | 39.17074 | 106 ft | 15 kts | 322° |
| 2026-05-09 11:39 | 45.03043 | 39.16984 | 106 ft | 16 kts | 323° |
| 2026-05-09 11:40 | 45.03211 | 39.16801 | 106 ft | 14 kts | 322° |
| 2026-05-09 11:40 | 45.03288 | 39.16718 | 106 ft | 15 kts | 323° |
| 2026-05-09 11:40 | 45.03368 | 39.16632 | 106 ft | 14 kts | 322° |
| 2026-05-09 11:40 | 45.03444 | 39.16549 | 106 ft | 16 kts | 323° |
| 2026-05-09 11:41 | 45.03553 | 39.16430 | 106 ft | 22 kts | 322° |
| 2026-05-09 11:41 | 45.03663 | 39.16311 | 106 ft | 14 kts | 321° |
| 2026-05-09 11:41 | 45.03746 | 39.16223 | 106 ft | 15 kts | 323° |
| 2026-05-09 11:41 | 45.03814 | 39.16141 | 106 ft | 10 kts | 306° |
| 2026-05-09 11:42 | 45.03831 | 39.16052 | 106 ft | 10 kts | 279° |
| 2026-05-09 11:42 | 45.03846 | 39.15924 | 106 ft | 16 kts | 280° |
| 2026-05-09 11:42 | 45.03865 | 39.15769 | 106 ft | 13 kts | 279° |
| 2026-05-09 11:42 | 45.03851 | 39.15668 | 105 ft | 10 kts | 239° |
| 2026-05-09 11:43 | 45.03818 | 39.15581 | 105 ft | 13 kts | 240° |
| 2026-05-09 11:43 | 45.03773 | 39.15467 | 105 ft | 14 kts | 241° |
| 2026-05-09 11:43 | 45.03726 | 39.15346 | 106 ft | 15 kts | 241° |
| 2026-05-09 11:43 | 45.03703 | 39.15239 | 106 ft | 10 kts | 290° |
| 2026-05-09 11:44 | 45.03759 | 39.15189 | 106 ft | 9 kts | 332° |
| 2026-05-09 11:44 | 45.03788 | 39.15097 | 106 ft | 13 kts | 255° |
| 2026-05-09 11:44 | 45.03750 | 39.14993 | 106 ft | 11 kts | 240° |
| 2026-05-09 11:44 | 45.03714 | 39.14903 | 106 ft | 10 kts | 240° |
| 2026-05-09 11:45 | 45.03683 | 39.14824 | 106 ft | 9 kts | 241° |
| 2026-05-09 11:45 | 45.03656 | 39.14756 | 106 ft | 7 kts | 240° |
| 2026-05-09 11:45 | 45.03630 | 39.14689 | 106 ft | 9 kts | 241° |
| 2026-05-09 11:45 | 45.03587 | 39.14582 | 106 ft | 15 kts | 240° |
| 2026-05-09 11:46 | 45.03545 | 39.14477 | 106 ft | 15 kts | 240° |
| 2026-05-09 11:46 | 45.03509 | 39.14385 | 106 ft | 10 kts | 240° |
| 2026-05-09 11:46 | 45.03478 | 39.14308 | 106 ft | 7 kts | 240° |
| 2026-05-09 11:46 | 45.03469 | 39.14283 | 106 ft | 5 kts | 245° |
| 2026-05-09 11:47 | 45.03476 | 39.14248 | 106 ft | 3 kts | 314° |
| 2026-05-09 11:47 | 45.03495 | 39.14234 | 106 ft | 3 kts | 332° |
| 2026-05-09 11:47 | 45.03508 | 39.14224 | 106 ft | 0 kts | 332° |